sensor_id;sensor_type;location;lat;lon;timestamp;temperature;humidity
75217;HTU21D;63800;51.972;5.682;2023-04-24T00:01:38;9.54;106.23
75217;HTU21D;63800;51.972;5.682;2023-04-24T00:04:05;9.44;107.69
75217;HTU21D;63800;51.972;5.682;2023-04-24T00:06:31;9.56;105.29
75217;HTU21D;63800;51.972;5.682;2023-04-24T00:09:00;9.54;105.02
75217;HTU21D;63800;51.972;5.682;2023-04-24T00:11:26;9.52;104.85
75217;HTU21D;63800;51.972;5.682;2023-04-24T00:13:52;9.65;104.46
75217;HTU21D;63800;51.972;5.682;2023-04-24T00:16:17;9.62;105.34
75217;HTU21D;63800;51.972;5.682;2023-04-24T00:18:43;9.66;105.16
75217;HTU21D;63800;51.972;5.682;2023-04-24T00:21:10;9.60;104.86
75217;HTU21D;63800;51.972;5.682;2023-04-24T00:23:35;9.68;104.96
75217;HTU21D;63800;51.972;5.682;2023-04-24T00:26:01;9.65;104.38
75217;HTU21D;63800;51.972;5.682;2023-04-24T00:28:27;9.56;104.76
75217;HTU21D;63800;51.972;5.682;2023-04-24T00:30:53;9.65;104.44
75217;HTU21D;63800;51.972;5.682;2023-04-24T00:33:19;9.65;104.34
75217;HTU21D;63800;51.972;5.682;2023-04-24T00:35:44;9.67;104.32
75217;HTU21D;63800;51.972;5.682;2023-04-24T00:38:10;9.57;104.69
75217;HTU21D;63800;51.972;5.682;2023-04-24T00:40:35;9.42;105.29
75217;HTU21D;63800;51.972;5.682;2023-04-24T00:43:01;9.48;105.69
75217;HTU21D;63800;51.972;5.682;2023-04-24T00:45:26;9.34;106.10
75217;HTU21D;63800;51.972;5.682;2023-04-24T00:47:52;9.50;106.18
75217;HTU21D;63800;51.972;5.682;2023-04-24T00:50:18;9.62;106.17
75217;HTU21D;63800;51.972;5.682;2023-04-24T00:52:44;9.30;108.73
75217;HTU21D;63800;51.972;5.682;2023-04-24T00:55:10;9.33;110.04
75217;HTU21D;63800;51.972;5.682;2023-04-24T00:57:36;9.39;110.18
75217;HTU21D;63800;51.972;5.682;2023-04-24T01:00:01;9.54;108.48
75217;HTU21D;63800;51.972;5.682;2023-04-24T01:02:28;9.46;110.37
75217;HTU21D;63800;51.972;5.682;2023-04-24T01:04:54;9.45;110.58
75217;HTU21D;63800;51.972;5.682;2023-04-24T01:07:20;9.37;110.71
75217;HTU21D;63800;51.972;5.682;2023-04-24T01:09:47;9.15;105.35
75217;HTU21D;63800;51.972;5.682;2023-04-24T01:12:15;9.16;105.45
75217;HTU21D;63800;51.972;5.682;2023-04-24T01:14:40;9.38;105.05
75217;HTU21D;63800;51.972;5.682;2023-04-24T01:17:06;9.34;106.34
75217;HTU21D;63800;51.972;5.682;2023-04-24T01:19:32;9.42;106.50
75217;HTU21D;63800;51.972;5.682;2023-04-24T01:21:58;9.35;107.44
75217;HTU21D;63800;51.972;5.682;2023-04-24T01:24:24;9.36;107.20
75217;HTU21D;63800;51.972;5.682;2023-04-24T01:26:50;9.12;107.43
75217;HTU21D;63800;51.972;5.682;2023-04-24T01:29:15;9.38;105.99
75217;HTU21D;63800;51.972;5.682;2023-04-24T01:31:41;9.22;107.43
75217;HTU21D;63800;51.972;5.682;2023-04-24T01:34:06;9.33;107.71
75217;HTU21D;63800;51.972;5.682;2023-04-24T01:36:34;9.30;108.33
75217;HTU21D;63800;51.972;5.682;2023-04-24T01:39:00;9.15;109.97
75217;HTU21D;63800;51.972;5.682;2023-04-24T01:41:26;9.29;108.24
75217;HTU21D;63800;51.972;5.682;2023-04-24T01:43:51;9.35;108.46
75217;HTU21D;63800;51.972;5.682;2023-04-24T01:46:17;9.36;108.20
75217;HTU21D;63800;51.972;5.682;2023-04-24T01:48:45;9.39;108.37
75217;HTU21D;63800;51.972;5.682;2023-04-24T01:51:10;9.40;107.79
75217;HTU21D;63800;51.972;5.682;2023-04-24T01:53:36;9.41;109.02
75217;HTU21D;63800;51.972;5.682;2023-04-24T01:56:01;9.52;108.84
75217;HTU21D;63800;51.972;5.682;2023-04-24T01:58:27;9.42;109.17
75217;HTU21D;63800;51.972;5.682;2023-04-24T02:00:52;9.56;108.61
75217;HTU21D;63800;51.972;5.682;2023-04-24T02:03:18;9.47;110.30
75217;HTU21D;63800;51.972;5.682;2023-04-24T02:05:44;9.67;108.74
75217;HTU21D;63800;51.972;5.682;2023-04-24T02:08:10;9.55;109.04
75217;HTU21D;63800;51.972;5.682;2023-04-24T02:10:35;9.45;110.14
75217;HTU21D;63800;51.972;5.682;2023-04-24T02:13:01;9.54;109.35
75217;HTU21D;63800;51.972;5.682;2023-04-24T02:15:27;9.51;110.55
75217;HTU21D;63800;51.972;5.682;2023-04-24T02:17:53;9.39;111.13
75217;HTU21D;63800;51.972;5.682;2023-04-24T02:20:18;9.56;110.74
75217;HTU21D;63800;51.972;5.682;2023-04-24T02:22:44;9.48;111.08
75217;HTU21D;63800;51.972;5.682;2023-04-24T02:25:09;9.42;112.42
75217;HTU21D;63800;51.972;5.682;2023-04-24T02:27:34;9.53;111.55
75217;HTU21D;63800;51.972;5.682;2023-04-24T02:30:00;9.41;112.98
75217;HTU21D;63800;51.972;5.682;2023-04-24T02:32:25;9.51;112.41
75217;HTU21D;63800;51.972;5.682;2023-04-24T02:34:51;9.51;112.77
75217;HTU21D;63800;51.972;5.682;2023-04-24T02:37:16;9.64;111.41
75217;HTU21D;63800;51.972;5.682;2023-04-24T02:39:42;9.65;111.72
75217;HTU21D;63800;51.972;5.682;2023-04-24T02:42:07;9.78;110.90
75217;HTU21D;63800;51.972;5.682;2023-04-24T02:44:33;9.42;111.26
75217;HTU21D;63800;51.972;5.682;2023-04-24T02:46:58;9.33;110.57
75217;HTU21D;63800;51.972;5.682;2023-04-24T02:49:24;9.36;109.66
75217;HTU21D;63800;51.972;5.682;2023-04-24T02:51:49;9.34;110.47
75217;HTU21D;63800;51.972;5.682;2023-04-24T02:54:15;9.38;109.26
75217;HTU21D;63800;51.972;5.682;2023-04-24T02:56:40;9.36;108.72
75217;HTU21D;63800;51.972;5.682;2023-04-24T02:59:06;9.39;107.53
75217;HTU21D;63800;51.972;5.682;2023-04-24T03:01:31;9.37;107.65
75217;HTU21D;63800;51.972;5.682;2023-04-24T03:03:56;9.46;107.21
75217;HTU21D;63800;51.972;5.682;2023-04-24T03:06:22;9.37;107.61
75217;HTU21D;63800;51.972;5.682;2023-04-24T03:08:48;9.36;108.55
75217;HTU21D;63800;51.972;5.682;2023-04-24T03:11:13;9.41;108.78
75217;HTU21D;63800;51.972;5.682;2023-04-24T03:13:38;9.37;109.84
75217;HTU21D;63800;51.972;5.682;2023-04-24T03:16:04;9.42;109.75
75217;HTU21D;63800;51.972;5.682;2023-04-24T03:18:30;9.31;111.74
75217;HTU21D;63800;51.972;5.682;2023-04-24T03:20:56;9.36;112.14
75217;HTU21D;63800;51.972;5.682;2023-04-24T03:23:21;9.55;111.51
75217;HTU21D;63800;51.972;5.682;2023-04-24T03:25:47;9.35;111.94
75217;HTU21D;63800;51.972;5.682;2023-04-24T03:28:13;9.23;112.41
75217;HTU21D;63800;51.972;5.682;2023-04-24T03:30:39;9.21;111.58
75217;HTU21D;63800;51.972;5.682;2023-04-24T03:33:05;9.24;108.58
75217;HTU21D;63800;51.972;5.682;2023-04-24T03:35:30;9.26;110.11
75217;HTU21D;63800;51.972;5.682;2023-04-24T03:37:56;9.31;111.51
75217;HTU21D;63800;51.972;5.682;2023-04-24T03:40:21;9.23;110.62
75217;HTU21D;63800;51.972;5.682;2023-04-24T03:42:47;9.29;109.89
75217;HTU21D;63800;51.972;5.682;2023-04-24T03:45:12;9.37;110.07
75217;HTU21D;63800;51.972;5.682;2023-04-24T03:47:37;9.35;110.84
75217;HTU21D;63800;51.972;5.682;2023-04-24T03:50:03;9.21;111.58
75217;HTU21D;63800;51.972;5.682;2023-04-24T03:52:28;9.14;111.87
75217;HTU21D;63800;51.972;5.682;2023-04-24T03:54:54;8.98;113.02
75217;HTU21D;63800;51.972;5.682;2023-04-24T03:57:20;9.16;111.23
75217;HTU21D;63800;51.972;5.682;2023-04-24T03:59:46;8.98;112.39
75217;HTU21D;63800;51.972;5.682;2023-04-24T04:02:11;8.98;111.13
75217;HTU21D;63800;51.972;5.682;2023-04-24T04:04:36;9.06;110.29
75217;HTU21D;63800;51.972;5.682;2023-04-24T04:07:02;8.94;111.70
75217;HTU21D;63800;51.972;5.682;2023-04-24T04:09:28;9.02;110.70
75217;HTU21D;63800;51.972;5.682;2023-04-24T04:11:54;8.85;109.77
75217;HTU21D;63800;51.972;5.682;2023-04-24T04:14:19;8.76;109.66
75217;HTU21D;63800;51.972;5.682;2023-04-24T04:16:44;8.90;110.44
75217;HTU21D;63800;51.972;5.682;2023-04-24T04:19:10;8.75;110.68
75217;HTU21D;63800;51.972;5.682;2023-04-24T04:21:35;8.64;111.32
75217;HTU21D;63800;51.972;5.682;2023-04-24T04:24:01;8.68;111.90
75217;HTU21D;63800;51.972;5.682;2023-04-24T04:26:26;8.67;112.66
75217;HTU21D;63800;51.972;5.682;2023-04-24T04:28:52;8.65;111.13
75217;HTU21D;63800;51.972;5.682;2023-04-24T04:31:19;8.55;112.13
75217;HTU21D;63800;51.972;5.682;2023-04-24T04:33:45;8.72;113.54
75217;HTU21D;63800;51.972;5.682;2023-04-24T04:36:10;8.59;112.59
75217;HTU21D;63800;51.972;5.682;2023-04-24T04:38:37;8.56;113.39
75217;HTU21D;63800;51.972;5.682;2023-04-24T04:41:03;8.47;113.76
75217;HTU21D;63800;51.972;5.682;2023-04-24T04:43:28;8.34;115.06
75217;HTU21D;63800;51.972;5.682;2023-04-24T04:45:54;8.38;114.03
75217;HTU21D;63800;51.972;5.682;2023-04-24T04:48:21;8.58;114.56
75217;HTU21D;63800;51.972;5.682;2023-04-24T04:50:47;8.71;113.92
75217;HTU21D;63800;51.972;5.682;2023-04-24T04:53:12;8.58;114.62
75217;HTU21D;63800;51.972;5.682;2023-04-24T04:55:38;8.67;113.61
75217;HTU21D;63800;51.972;5.682;2023-04-24T04:58:03;8.73;112.52
75217;HTU21D;63800;51.972;5.682;2023-04-24T05:00:29;8.81;111.61
75217;HTU21D;63800;51.972;5.682;2023-04-24T05:03:02;8.96;110.65
75217;HTU21D;63800;51.972;5.682;2023-04-24T05:05:28;8.85;110.70
75217;HTU21D;63800;51.972;5.682;2023-04-24T05:07:53;8.95;109.55
75217;HTU21D;63800;51.972;5.682;2023-04-24T05:10:19;8.83;110.90
75217;HTU21D;63800;51.972;5.682;2023-04-24T05:12:44;9.04;109.07
75217;HTU21D;63800;51.972;5.682;2023-04-24T05:15:10;8.95;109.36
75217;HTU21D;63800;51.972;5.682;2023-04-24T05:17:36;9.03;107.92
75217;HTU21D;63800;51.972;5.682;2023-04-24T05:20:02;9.11;107.05
75217;HTU21D;63800;51.972;5.682;2023-04-24T05:22:30;9.15;108.08
75217;HTU21D;63800;51.972;5.682;2023-04-24T05:24:56;9.12;107.73
75217;HTU21D;63800;51.972;5.682;2023-04-24T05:27:21;9.14;108.27
75217;HTU21D;63800;51.972;5.682;2023-04-24T05:29:47;9.09;107.11
75217;HTU21D;63800;51.972;5.682;2023-04-24T05:32:12;9.33;105.63
75217;HTU21D;63800;51.972;5.682;2023-04-24T05:34:38;9.22;107.97
75217;HTU21D;63800;51.972;5.682;2023-04-24T05:37:03;9.42;106.71
75217;HTU21D;63800;51.972;5.682;2023-04-24T05:39:33;9.38;106.50
75217;HTU21D;63800;51.972;5.682;2023-04-24T05:41:58;9.46;106.78
75217;HTU21D;63800;51.972;5.682;2023-04-24T05:44:24;9.50;106.37
75217;HTU21D;63800;51.972;5.682;2023-04-24T05:46:50;9.64;106.71
75217;HTU21D;63800;51.972;5.682;2023-04-24T05:49:16;9.65;104.38
75217;HTU21D;63800;51.972;5.682;2023-04-24T05:51:41;9.52;107.40
75217;HTU21D;63800;51.972;5.682;2023-04-24T05:54:07;9.52;105.69
75217;HTU21D;63800;51.972;5.682;2023-04-24T05:56:32;9.36;106.54
75217;HTU21D;63800;51.972;5.682;2023-04-24T05:58:58;9.60;105.76
75217;HTU21D;63800;51.972;5.682;2023-04-24T06:01:23;9.51;107.56
75217;HTU21D;63800;51.972;5.682;2023-04-24T06:03:50;9.50;107.14
75217;HTU21D;63800;51.972;5.682;2023-04-24T06:06:15;9.55;105.56
75217;HTU21D;63800;51.972;5.682;2023-04-24T06:08:41;9.71;105.25
75217;HTU21D;63800;51.972;5.682;2023-04-24T06:11:07;9.63;105.81
75217;HTU21D;63800;51.972;5.682;2023-04-24T06:13:33;9.65;106.34
75217;HTU21D;63800;51.972;5.682;2023-04-24T06:15:58;9.70;105.80
75217;HTU21D;63800;51.972;5.682;2023-04-24T06:18:24;9.47;107.96
75217;HTU21D;63800;51.972;5.682;2023-04-24T06:20:49;9.64;106.99
75217;HTU21D;63800;51.972;5.682;2023-04-24T06:23:14;9.52;109.16
75217;HTU21D;63800;51.972;5.682;2023-04-24T06:25:40;9.66;107.48
75217;HTU21D;63800;51.972;5.682;2023-04-24T06:28:06;9.68;107.86
75217;HTU21D;63800;51.972;5.682;2023-04-24T06:30:31;9.48;108.01
75217;HTU21D;63800;51.972;5.682;2023-04-24T06:32:57;9.60;107.58
75217;HTU21D;63800;51.972;5.682;2023-04-24T06:35:22;9.45;109.60
75217;HTU21D;63800;51.972;5.682;2023-04-24T06:37:48;9.45;109.62
75217;HTU21D;63800;51.972;5.682;2023-04-24T06:40:14;9.57;108.03
75217;HTU21D;63800;51.972;5.682;2023-04-24T06:42:39;9.36;108.40
75217;HTU21D;63800;51.972;5.682;2023-04-24T06:45:05;9.26;109.77
75217;HTU21D;63800;51.972;5.682;2023-04-24T06:47:31;9.24;109.70
75217;HTU21D;63800;51.972;5.682;2023-04-24T06:49:58;9.23;109.60
75217;HTU21D;63800;51.972;5.682;2023-04-24T06:52:23;9.17;110.61
75217;HTU21D;63800;51.972;5.682;2023-04-24T06:54:49;8.96;111.03
75217;HTU21D;63800;51.972;5.682;2023-04-24T06:57:15;8.77;111.23
75217;HTU21D;63800;51.972;5.682;2023-04-24T06:59:42;8.86;110.86
75217;HTU21D;63800;51.972;5.682;2023-04-24T07:02:07;8.91;112.46
75217;HTU21D;63800;51.972;5.682;2023-04-24T07:04:32;8.94;111.52
75217;HTU21D;63800;51.972;5.682;2023-04-24T07:06:58;8.88;111.84
75217;HTU21D;63800;51.972;5.682;2023-04-24T07:09:24;8.78;112.56
75217;HTU21D;63800;51.972;5.682;2023-04-24T07:11:51;8.85;112.10
75217;HTU21D;63800;51.972;5.682;2023-04-24T07:14:18;8.89;110.80
75217;HTU21D;63800;51.972;5.682;2023-04-24T07:16:43;8.75;112.80
75217;HTU21D;63800;51.972;5.682;2023-04-24T07:19:09;8.70;111.72
75217;HTU21D;63800;51.972;5.682;2023-04-24T07:21:34;8.79;110.68
75217;HTU21D;63800;51.972;5.682;2023-04-24T07:24:00;8.83;111.13
75217;HTU21D;63800;51.972;5.682;2023-04-24T07:26:29;8.82;111.43
75217;HTU21D;63800;51.972;5.682;2023-04-24T07:28:55;8.80;112.05
75217;HTU21D;63800;51.972;5.682;2023-04-24T07:31:20;8.83;111.55
75217;HTU21D;63800;51.972;5.682;2023-04-24T07:33:46;8.77;111.36
75217;HTU21D;63800;51.972;5.682;2023-04-24T07:36:11;8.76;110.48
75217;HTU21D;63800;51.972;5.682;2023-04-24T07:38:41;8.70;110.71
75217;HTU21D;63800;51.972;5.682;2023-04-24T07:41:07;8.76;110.40
75217;HTU21D;63800;51.972;5.682;2023-04-24T07:43:32;8.70;108.94
75217;HTU21D;63800;51.972;5.682;2023-04-24T07:45:58;8.63;111.49
75217;HTU21D;63800;51.972;5.682;2023-04-24T07:48:24;8.66;109.93
75217;HTU21D;63800;51.972;5.682;2023-04-24T07:50:51;8.65;110.04
75217;HTU21D;63800;51.972;5.682;2023-04-24T07:53:17;8.70;108.96
75217;HTU21D;63800;51.972;5.682;2023-04-24T07:55:42;8.61;107.97
75217;HTU21D;63800;51.972;5.682;2023-04-24T07:58:08;8.58;108.88
75217;HTU21D;63800;51.972;5.682;2023-04-24T08:00:33;8.53;109.19
75217;HTU21D;63800;51.972;5.682;2023-04-24T08:02:59;8.59;111.59
75217;HTU21D;63800;51.972;5.682;2023-04-24T08:05:25;8.64;108.48
75217;HTU21D;63800;51.972;5.682;2023-04-24T08:07:52;8.56;109.23
75217;HTU21D;63800;51.972;5.682;2023-04-24T08:10:18;8.53;109.26
75217;HTU21D;63800;51.972;5.682;2023-04-24T08:12:43;8.68;108.52
75217;HTU21D;63800;51.972;5.682;2023-04-24T08:15:09;8.66;108.99
75217;HTU21D;63800;51.972;5.682;2023-04-24T08:17:35;8.72;108.98
75217;HTU21D;63800;51.972;5.682;2023-04-24T08:20:02;8.79;107.93
75217;HTU21D;63800;51.972;5.682;2023-04-24T08:22:30;8.72;108.95
75217;HTU21D;63800;51.972;5.682;2023-04-24T08:24:56;8.68;108.04
75217;HTU21D;63800;51.972;5.682;2023-04-24T08:27:25;8.59;111.24
75217;HTU21D;63800;51.972;5.682;2023-04-24T08:29:53;8.65;108.72
75217;HTU21D;63800;51.972;5.682;2023-04-24T08:32:18;8.58;108.23
75217;HTU21D;63800;51.972;5.682;2023-04-24T08:34:44;8.57;109.00
75217;HTU21D;63800;51.972;5.682;2023-04-24T08:37:09;8.75;109.55
75217;HTU21D;63800;51.972;5.682;2023-04-24T08:39:35;8.60;109.72
75217;HTU21D;63800;51.972;5.682;2023-04-24T08:42:01;8.55;109.36
75217;HTU21D;63800;51.972;5.682;2023-04-24T08:44:32;8.49;110.61
75217;HTU21D;63800;51.972;5.682;2023-04-24T08:46:57;8.49;111.60
75217;HTU21D;63800;51.972;5.682;2023-04-24T08:49:24;8.48;110.80
75217;HTU21D;63800;51.972;5.682;2023-04-24T08:51:50;8.33;109.16
75217;HTU21D;63800;51.972;5.682;2023-04-24T08:54:18;8.45;108.52
75217;HTU21D;63800;51.972;5.682;2023-04-24T08:56:44;8.50;111.55
75217;HTU21D;63800;51.972;5.682;2023-04-24T08:59:10;8.41;110.78
75217;HTU21D;63800;51.972;5.682;2023-04-24T09:01:37;8.59;111.52
75217;HTU21D;63800;51.972;5.682;2023-04-24T09:04:07;8.64;109.93
75217;HTU21D;63800;51.972;5.682;2023-04-24T09:06:32;8.61;110.52
75217;HTU21D;63800;51.972;5.682;2023-04-24T09:09:00;8.65;108.44
75217;HTU21D;63800;51.972;5.682;2023-04-24T09:11:26;8.56;105.96
75217;HTU21D;63800;51.972;5.682;2023-04-24T09:13:53;8.70;106.82
75217;HTU21D;63800;51.972;5.682;2023-04-24T09:16:20;8.76;103.58
75217;HTU21D;63800;51.972;5.682;2023-04-24T09:18:45;8.64;104.34
75217;HTU21D;63800;51.972;5.682;2023-04-24T09:21:11;8.64;101.22
75217;HTU21D;63800;51.972;5.682;2023-04-24T09:23:37;8.74;100.22
75217;HTU21D;63800;51.972;5.682;2023-04-24T09:26:04;8.79;99.16
75217;HTU21D;63800;51.972;5.682;2023-04-24T09:28:40;8.75;99.78
75217;HTU21D;63800;51.972;5.682;2023-04-24T09:33:35;8.67;94.38
75217;HTU21D;63800;51.972;5.682;2023-04-24T09:36:01;8.70;94.62
75217;HTU21D;63800;51.972;5.682;2023-04-24T09:38:37;8.86;98.80
75217;HTU21D;63800;51.972;5.682;2023-04-24T09:41:06;8.67;96.65
75217;HTU21D;63800;51.972;5.682;2023-04-24T09:43:32;8.73;97.19
75217;HTU21D;63800;51.972;5.682;2023-04-24T09:45:59;8.77;97.90
75217;HTU21D;63800;51.972;5.682;2023-04-24T09:48:31;8.76;94.92
75217;HTU21D;63800;51.972;5.682;2023-04-24T09:50:57;8.73;95.75
75217;HTU21D;63800;51.972;5.682;2023-04-24T09:53:28;8.70;93.73
75217;HTU21D;63800;51.972;5.682;2023-04-24T09:55:54;8.67;91.33
75217;HTU21D;63800;51.972;5.682;2023-04-24T09:58:26;8.90;93.98
75217;HTU21D;63800;51.972;5.682;2023-04-24T10:00:54;9.09;94.65
75217;HTU21D;63800;51.972;5.682;2023-04-24T10:03:20;9.11;91.62
75217;HTU21D;63800;51.972;5.682;2023-04-24T10:05:46;9.35;92.28
75217;HTU21D;63800;51.972;5.682;2023-04-24T10:08:12;9.57;90.60
75217;HTU21D;63800;51.972;5.682;2023-04-24T10:10:42;9.59;88.89
75217;HTU21D;63800;51.972;5.682;2023-04-24T10:13:12;9.67;87.48
75217;HTU21D;63800;51.972;5.682;2023-04-24T10:15:40;9.95;90.92
75217;HTU21D;63800;51.972;5.682;2023-04-24T10:18:07;10.18;87.54
75217;HTU21D;63800;51.972;5.682;2023-04-24T10:20:35;10.27;86.85
75217;HTU21D;63800;51.972;5.682;2023-04-24T10:23:01;10.23;86.03
75217;HTU21D;63800;51.972;5.682;2023-04-24T10:25:28;9.99;84.56
75217;HTU21D;63800;51.972;5.682;2023-04-24T10:27:54;9.69;80.85
75217;HTU21D;63800;51.972;5.682;2023-04-24T10:30:26;9.36;81.48
75217;HTU21D;63800;51.972;5.682;2023-04-24T10:32:51;9.37;81.66
75217;HTU21D;63800;51.972;5.682;2023-04-24T10:35:17;9.42;81.64
75217;HTU21D;63800;51.972;5.682;2023-04-24T10:38:06;9.59;78.66
75217;HTU21D;63800;51.972;5.682;2023-04-24T10:40:34;9.77;79.42
75217;HTU21D;63800;51.972;5.682;2023-04-24T10:43:04;9.86;79.71
75217;HTU21D;63800;51.972;5.682;2023-04-24T10:45:35;9.72;79.33
75217;HTU21D;63800;51.972;5.682;2023-04-24T10:48:09;9.60;80.52
75217;HTU21D;63800;51.972;5.682;2023-04-24T10:50:51;9.32;81.04
75217;HTU21D;63800;51.972;5.682;2023-04-24T10:53:22;9.24;81.53
75217;HTU21D;63800;51.972;5.682;2023-04-24T10:58:36;9.18;83.71
75217;HTU21D;63800;51.972;5.682;2023-04-24T11:01:02;9.27;82.93
75217;HTU21D;63800;51.972;5.682;2023-04-24T11:03:29;9.40;80.96
75217;HTU21D;63800;51.972;5.682;2023-04-24T11:06:02;9.39;81.60
75217;HTU21D;63800;51.972;5.682;2023-04-24T11:08:36;9.42;81.20
75217;HTU21D;63800;51.972;5.682;2023-04-24T11:11:10;9.56;80.32
75217;HTU21D;63800;51.972;5.682;2023-04-24T11:18:52;9.37;81.43
75217;HTU21D;63800;51.972;5.682;2023-04-24T11:21:20;9.27;81.64
75217;HTU21D;63800;51.972;5.682;2023-04-24T11:23:47;9.35;82.08
75217;HTU21D;63800;51.972;5.682;2023-04-24T11:26:23;9.54;80.27
75217;HTU21D;63800;51.972;5.682;2023-04-24T11:29:06;10.07;79.02
75217;HTU21D;63800;51.972;5.682;2023-04-24T11:31:39;10.26;78.96
75217;HTU21D;63800;51.972;5.682;2023-04-24T11:34:11;10.77;78.54
75217;HTU21D;63800;51.972;5.682;2023-04-24T11:36:39;11.15;77.25
75217;HTU21D;63800;51.972;5.682;2023-04-24T11:39:05;11.00;76.44
75217;HTU21D;63800;51.972;5.682;2023-04-24T11:41:32;10.39;75.35
75217;HTU21D;63800;51.972;5.682;2023-04-24T11:43:58;10.19;77.34
75217;HTU21D;63800;51.972;5.682;2023-04-24T11:46:27;9.98;77.31
75217;HTU21D;63800;51.972;5.682;2023-04-24T11:48:53;9.81;78.84
75217;HTU21D;63800;51.972;5.682;2023-04-24T11:51:19;9.63;80.55
75217;HTU21D;63800;51.972;5.682;2023-04-24T11:53:44;9.62;82.39
75217;HTU21D;63800;51.972;5.682;2023-04-24T11:56:10;9.72;82.24
75217;HTU21D;63800;51.972;5.682;2023-04-24T11:58:37;9.52;84.23
75217;HTU21D;63800;51.972;5.682;2023-04-24T12:01:02;9.52;84.79
75217;HTU21D;63800;51.972;5.682;2023-04-24T12:03:28;9.23;87.84
75217;HTU21D;63800;51.972;5.682;2023-04-24T12:06:05;9.03;90.38
75217;HTU21D;63800;51.972;5.682;2023-04-24T12:08:31;9.00;91.54
75217;HTU21D;63800;51.972;5.682;2023-04-24T12:10:57;9.11;90.39
75217;HTU21D;63800;51.972;5.682;2023-04-24T12:13:25;9.22;90.41
75217;HTU21D;63800;51.972;5.682;2023-04-24T12:15:51;9.50;89.52
75217;HTU21D;63800;51.972;5.682;2023-04-24T12:18:16;9.65;87.54
75217;HTU21D;63800;51.972;5.682;2023-04-24T12:20:42;9.84;84.81
75217;HTU21D;63800;51.972;5.682;2023-04-24T12:23:07;10.08;82.41
75217;HTU21D;63800;51.972;5.682;2023-04-24T12:25:33;9.92;81.83
75217;HTU21D;63800;51.972;5.682;2023-04-24T12:30:28;9.83;81.40
75217;HTU21D;63800;51.972;5.682;2023-04-24T12:32:57;9.59;79.83
75217;HTU21D;63800;51.972;5.682;2023-04-24T12:35:25;9.64;79.56
75217;HTU21D;63800;51.972;5.682;2023-04-24T12:37:51;9.61;79.32
75217;HTU21D;63800;51.972;5.682;2023-04-24T12:40:18;9.20;80.16
75217;HTU21D;63800;51.972;5.682;2023-04-24T12:42:46;9.49;80.27
75217;HTU21D;63800;51.972;5.682;2023-04-24T12:45:12;9.61;79.47
75217;HTU21D;63800;51.972;5.682;2023-04-24T12:47:39;9.26;79.87
75217;HTU21D;63800;51.972;5.682;2023-04-24T12:50:06;9.41;79.88
75217;HTU21D;63800;51.972;5.682;2023-04-24T12:52:31;9.65;80.12
75217;HTU21D;63800;51.972;5.682;2023-04-24T12:54:59;9.65;80.48
75217;HTU21D;63800;51.972;5.682;2023-04-24T12:57:26;9.44;80.30
75217;HTU21D;63800;51.972;5.682;2023-04-24T12:59:56;9.49;79.49
75217;HTU21D;63800;51.972;5.682;2023-04-24T13:02:23;9.41;79.87
75217;HTU21D;63800;51.972;5.682;2023-04-24T13:04:49;9.68;77.28
75217;HTU21D;63800;51.972;5.682;2023-04-24T13:07:15;9.78;75.82
75217;HTU21D;63800;51.972;5.682;2023-04-24T13:09:41;10.22;75.42
75217;HTU21D;63800;51.972;5.682;2023-04-24T13:12:08;9.91;75.88
75217;HTU21D;63800;51.972;5.682;2023-04-24T13:14:34;10.07;75.79
75217;HTU21D;63800;51.972;5.682;2023-04-24T13:16:59;9.55;73.96
75217;HTU21D;63800;51.972;5.682;2023-04-24T13:19:26;9.50;75.73
75217;HTU21D;63800;51.972;5.682;2023-04-24T13:21:53;9.55;75.64
75217;HTU21D;63800;51.972;5.682;2023-04-24T13:24:20;9.71;75.42
75217;HTU21D;63800;51.972;5.682;2023-04-24T13:26:46;9.64;74.02
75217;HTU21D;63800;51.972;5.682;2023-04-24T13:29:11;9.84;74.30
75217;HTU21D;63800;51.972;5.682;2023-04-24T13:31:36;10.28;73.25
75217;HTU21D;63800;51.972;5.682;2023-04-24T13:34:03;10.64;72.35
75217;HTU21D;63800;51.972;5.682;2023-04-24T13:36:29;10.80;71.35
75217;HTU21D;63800;51.972;5.682;2023-04-24T13:38:55;10.88;70.97
75217;HTU21D;63800;51.972;5.682;2023-04-24T13:41:20;10.57;70.37
75217;HTU21D;63800;51.972;5.682;2023-04-24T13:43:46;10.90;69.87
75217;HTU21D;63800;51.972;5.682;2023-04-24T13:46:11;11.67;68.57
75217;HTU21D;63800;51.972;5.682;2023-04-24T13:48:37;11.98;65.08
75217;HTU21D;63800;51.972;5.682;2023-04-24T13:51:02;11.86;63.26
75217;HTU21D;63800;51.972;5.682;2023-04-24T13:53:28;10.95;61.76
75217;HTU21D;63800;51.972;5.682;2023-04-24T13:55:53;11.44;61.70
75217;HTU21D;63800;51.972;5.682;2023-04-24T13:58:19;12.20;61.10
75217;HTU21D;63800;51.972;5.682;2023-04-24T14:00:44;12.03;62.50
75217;HTU21D;63800;51.972;5.682;2023-04-24T14:03:10;11.13;64.45
75217;HTU21D;63800;51.972;5.682;2023-04-24T14:05:36;10.96;67.03
75217;HTU21D;63800;51.972;5.682;2023-04-24T14:08:01;11.01;66.61
75217;HTU21D;63800;51.972;5.682;2023-04-24T14:10:27;10.83;65.54
75217;HTU21D;63800;51.972;5.682;2023-04-24T14:12:52;11.09;65.59
75217;HTU21D;63800;51.972;5.682;2023-04-24T14:15:18;11.75;64.37
75217;HTU21D;63800;51.972;5.682;2023-04-24T14:17:44;12.14;61.23
75217;HTU21D;63800;51.972;5.682;2023-04-24T14:20:09;11.42;62.31
75217;HTU21D;63800;51.972;5.682;2023-04-24T14:22:35;11.61;62.92
75217;HTU21D;63800;51.972;5.682;2023-04-24T14:25:00;11.74;60.86
75217;HTU21D;63800;51.972;5.682;2023-04-24T14:27:26;11.47;60.99
75217;HTU21D;63800;51.972;5.682;2023-04-24T14:29:52;11.44;60.45
75217;HTU21D;63800;51.972;5.682;2023-04-24T14:32:17;11.22;61.90
75217;HTU21D;63800;51.972;5.682;2023-04-24T14:34:43;11.38;61.47
75217;HTU21D;63800;51.972;5.682;2023-04-24T14:37:08;11.63;61.92
75217;HTU21D;63800;51.972;5.682;2023-04-24T14:39:34;11.39;62.18
75217;HTU21D;63800;51.972;5.682;2023-04-24T14:42:00;11.44;62.12
75217;HTU21D;63800;51.972;5.682;2023-04-24T14:44:26;11.36;62.30
75217;HTU21D;63800;51.972;5.682;2023-04-24T14:46:52;11.56;60.99
75217;HTU21D;63800;51.972;5.682;2023-04-24T14:49:18;11.18;60.64
75217;HTU21D;63800;51.972;5.682;2023-04-24T14:51:43;11.10;60.87
75217;HTU21D;63800;51.972;5.682;2023-04-24T14:54:09;10.95;62.76
75217;HTU21D;63800;51.972;5.682;2023-04-24T14:56:34;10.79;63.50
75217;HTU21D;63800;51.972;5.682;2023-04-24T14:59:00;11.00;64.35
75217;HTU21D;63800;51.972;5.682;2023-04-24T15:01:25;11.31;62.75
75217;HTU21D;63800;51.972;5.682;2023-04-24T15:03:51;11.07;63.79
75217;HTU21D;63800;51.972;5.682;2023-04-24T15:06:17;11.24;64.30
75217;HTU21D;63800;51.972;5.682;2023-04-24T15:08:42;11.34;64.43
75217;HTU21D;63800;51.972;5.682;2023-04-24T15:11:09;10.93;65.00
75217;HTU21D;63800;51.972;5.682;2023-04-24T15:13:35;10.87;66.78
75217;HTU21D;63800;51.972;5.682;2023-04-24T15:16:00;10.68;65.65
75217;HTU21D;63800;51.972;5.682;2023-04-24T15:18:26;10.49;66.66
75217;HTU21D;63800;51.972;5.682;2023-04-24T15:20:53;10.45;64.90
75217;HTU21D;63800;51.972;5.682;2023-04-24T15:23:18;10.27;64.80
75217;HTU21D;63800;51.972;5.682;2023-04-24T15:25:43;10.30;65.75
75217;HTU21D;63800;51.972;5.682;2023-04-24T15:28:09;10.11;66.71